Historyczne dane pomiarowe

Dodano dane terminowe – wersja testowa.

Dane z okresu 1951-2019

Wersja bazy: 1.34 [2019-03-16, lista zmian], aktualizacja planowana na 2019-04-15

Dane meteo z obszaru Polski uzyskane na podstawie danych udostępnionych przez Instytut Meteorologii i Gospodarki Wodnej – Państwowy Instytut Badawczy.

 

Wybierz Datę:    

       

TemperaturaWilgotnośćZachmurzenieWiatrCiśnienieWidzialnośćZjawiska
 Data    tng td wb rh cc ccl cl cm ch dir g1 g2 mslp ppp      
1999-07-16 00:00:00 4.0--- 4.0 4.0100wxwx2wx--- 799.9 0.0---wxw1
1999-07-16 01:00:00 3.4--- 3.4 3.4100wxwxwx1wx--- 799.9----wx
1999-07-16 02:00:00 3.4--- 3.4 3.4100wxwxwx2wx--- 799.8----wx
1999-07-16 03:00:00 3.8--- 3.8 3.8100wxwx1wx--- 800.1----wxw1
1999-07-16 04:00:00 3.6--- 3.6 3.6100wxwx1wx--- 800.2----wxw1
1999-07-16 05:00:00 3.6--- 3.6 3.6100wxwxwx2wx--- 800.5----wxw1
1999-07-16 06:00:00 3.7--- 3.4 3.698wxwxwx1wx--- 800.7 0.6---wxw1
1999-07-16 07:00:00 4.4--- 4.4 4.4100wxwx2wx--- 801.0----wx
1999-07-16 08:00:00 4.5--- 4.0 4.397wxwxwx2wx--- 801.1----wxw1
1999-07-16 09:00:00 5.1--- 5.1 5.1100wxwx1wx--- 801.5----wx
1999-07-16 10:00:00 5.4--- 4.6 5.195wxwxwx2wx--- 802.0----wxw1
1999-07-16 11:00:00 6.0--- 5.3 5.795wxwxwx2wx--- 802.4----wxw1
1999-07-16 12:00:00 7.3--- 5.8 6.590wxwxwx2wx--- 802.6 0.0---wxw1
1999-07-16 13:00:00 8.3--- 6.4 7.387wxwxwx2wx--- 802.8----wx
1999-07-16 14:00:00 7.1--- 5.6 6.390wxwxwx3wx--- 802.9----wxw1
1999-07-16 15:00:00 7.9--- 5.0 6.581wxwxwx2wx--- 803.1----wx
1999-07-16 16:00:00 7.2--- 5.6 6.490wxwxwx3wx--- 803.2----wx
1999-07-16 17:00:00 6.7--- 5.1 5.990wxwxwxwx3wx--- 803.4----wx
1999-07-16 18:00:00 6.0--- 4.8 5.493wxwxwx4wx--- 803.7 0.0---wxw1
1999-07-16 19:00:00 5.0--- 5.0 5.0100wxwx4wx--- 804.1----wx
1999-07-16 20:00:00 4.7--- 4.6 4.7100wxwx3wx--- 804.2----wxw1
1999-07-16 21:00:00 3.7--- 3.7 3.7100wxwx4wx--- 804.3----wx
1999-07-16 22:00:00 4.4--- 4.4 4.4100wxwx3wx--- 804.4----wxw1
1999-07-16 23:00:00 4.5--- 4.5 4.5100wxwx1wx--- 804.5----wxw1

 

Źródłem pochodzenia danych jest Instytut Meteorologii i Gospodarki Wodnej – Państwowy Instytut Badawczy. Dane Instytutu Meteorologii i Gospodarki Wodnej – Państwowego Instytutu Badawczego zostały przetworzone.

Dane źródłowe można odnaleźć na stronie https://dane.imgw.pl